sensor_id;sensor_type;location;lat;lon;timestamp;P1;durP1;ratioP1;P2;durP2;ratioP2
78116;SDS011;69042;59.120;37.904;2023-07-02T00:01:49;10.02;;;7.05;;
78116;SDS011;69042;59.120;37.904;2023-07-02T00:04:16;11.45;;;7.13;;
78116;SDS011;69042;59.120;37.904;2023-07-02T00:06:45;9.57;;;7.30;;
78116;SDS011;69042;59.120;37.904;2023-07-02T00:09:12;10.32;;;6.90;;
78116;SDS011;69042;59.120;37.904;2023-07-02T00:11:39;10.30;;;7.18;;
78116;SDS011;69042;59.120;37.904;2023-07-02T00:14:07;10.30;;;7.30;;
78116;SDS011;69042;59.120;37.904;2023-07-02T00:16:34;11.13;;;7.47;;
78116;SDS011;69042;59.120;37.904;2023-07-02T00:19:03;10.80;;;7.28;;
78116;SDS011;69042;59.120;37.904;2023-07-02T00:21:29;10.65;;;7.40;;
78116;SDS011;69042;59.120;37.904;2023-07-02T00:23:59;11.18;;;7.07;;
78116;SDS011;69042;59.120;37.904;2023-07-02T00:26:26;10.88;;;7.18;;
78116;SDS011;69042;59.120;37.904;2023-07-02T00:28:54;10.80;;;7.28;;
78116;SDS011;69042;59.120;37.904;2023-07-02T00:31:21;12.13;;;7.32;;
78116;SDS011;69042;59.120;37.904;2023-07-02T00:33:49;10.52;;;7.15;;
78116;SDS011;69042;59.120;37.904;2023-07-02T00:36:16;10.55;;;7.05;;
78116;SDS011;69042;59.120;37.904;2023-07-02T00:38:42;12.27;;;7.78;;
78116;SDS011;69042;59.120;37.904;2023-07-02T00:41:13;12.32;;;8.00;;
78116;SDS011;69042;59.120;37.904;2023-07-02T00:43:39;11.23;;;8.05;;
78116;SDS011;69042;59.120;37.904;2023-07-02T00:46:16;10.93;;;7.90;;
78116;SDS011;69042;59.120;37.904;2023-07-02T00:48:44;12.70;;;7.55;;
78116;SDS011;69042;59.120;37.904;2023-07-02T00:51:55;14.50;;;7.72;;
78116;SDS011;69042;59.120;37.904;2023-07-02T00:54:22;11.52;;;7.65;;
78116;SDS011;69042;59.120;37.904;2023-07-02T00:56:48;10.90;;;7.80;;
78116;SDS011;69042;59.120;37.904;2023-07-02T00:59:14;11.85;;;7.20;;
78116;SDS011;69042;59.120;37.904;2023-07-02T01:01:41;11.20;;;8.10;;
78116;SDS011;69042;59.120;37.904;2023-07-02T01:04:07;11.85;;;8.30;;
78116;SDS011;69042;59.120;37.904;2023-07-02T01:06:34;15.57;;;8.13;;
78116;SDS011;69042;59.120;37.904;2023-07-02T01:09:02;11.50;;;7.22;;
78116;SDS011;69042;59.120;37.904;2023-07-02T01:11:31;12.13;;;7.20;;
78116;SDS011;69042;59.120;37.904;2023-07-02T01:14:02;11.95;;;7.53;;
78116;SDS011;69042;59.120;37.904;2023-07-02T01:16:35;13.45;;;7.80;;
78116;SDS011;69042;59.120;37.904;2023-07-02T01:19:04;11.43;;;7.20;;
78116;SDS011;69042;59.120;37.904;2023-07-02T01:21:35;12.55;;;8.43;;
78116;SDS011;69042;59.120;37.904;2023-07-02T01:24:02;12.00;;;7.57;;
78116;SDS011;69042;59.120;37.904;2023-07-02T01:26:30;13.35;;;8.20;;
78116;SDS011;69042;59.120;37.904;2023-07-02T01:29:21;12.45;;;7.22;;
78116;SDS011;69042;59.120;37.904;2023-07-02T01:31:46;12.70;;;7.13;;
78116;SDS011;69042;59.120;37.904;2023-07-02T01:34:13;12.00;;;7.50;;
78116;SDS011;69042;59.120;37.904;2023-07-02T01:36:41;11.57;;;7.60;;
78116;SDS011;69042;59.120;37.904;2023-07-02T01:39:07;10.70;;;7.22;;
78116;SDS011;69042;59.120;37.904;2023-07-02T01:41:44;11.68;;;7.47;;
78116;SDS011;69042;59.120;37.904;2023-07-02T01:44:11;11.27;;;7.70;;
78116;SDS011;69042;59.120;37.904;2023-07-02T01:46:37;10.80;;;7.38;;
78116;SDS011;69042;59.120;37.904;2023-07-02T01:49:04;10.35;;;7.68;;
78116;SDS011;69042;59.120;37.904;2023-07-02T01:51:31;11.25;;;7.60;;
78116;SDS011;69042;59.120;37.904;2023-07-02T01:54:00;11.73;;;8.00;;
78116;SDS011;69042;59.120;37.904;2023-07-02T01:56:26;12.43;;;8.50;;
78116;SDS011;69042;59.120;37.904;2023-07-02T01:58:53;11.50;;;7.30;;
78116;SDS011;69042;59.120;37.904;2023-07-02T02:01:20;11.80;;;8.23;;
78116;SDS011;69042;59.120;37.904;2023-07-02T02:03:46;11.82;;;8.10;;
78116;SDS011;69042;59.120;37.904;2023-07-02T02:06:12;11.65;;;8.68;;
78116;SDS011;69042;59.120;37.904;2023-07-02T02:08:38;32.50;;;10.90;;
78116;SDS011;69042;59.120;37.904;2023-07-02T02:11:04;13.00;;;8.65;;
78116;SDS011;69042;59.120;37.904;2023-07-02T02:13:30;13.65;;;8.60;;
78116;SDS011;69042;59.120;37.904;2023-07-02T02:15:57;12.68;;;9.13;;
78116;SDS011;69042;59.120;37.904;2023-07-02T02:18:23;13.60;;;8.48;;
78116;SDS011;69042;59.120;37.904;2023-07-02T02:20:49;13.88;;;8.90;;
78116;SDS011;69042;59.120;37.904;2023-07-02T02:23:15;14.77;;;9.38;;
78116;SDS011;69042;59.120;37.904;2023-07-02T02:25:41;12.32;;;8.40;;
78116;SDS011;69042;59.120;37.904;2023-07-02T02:28:07;12.13;;;9.00;;
78116;SDS011;69042;59.120;37.904;2023-07-02T02:30:33;12.32;;;8.73;;
78116;SDS011;69042;59.120;37.904;2023-07-02T02:33:01;14.07;;;8.73;;
78116;SDS011;69042;59.120;37.904;2023-07-02T02:35:27;12.63;;;8.20;;
78116;SDS011;69042;59.120;37.904;2023-07-02T02:37:53;11.73;;;7.60;;
78116;SDS011;69042;59.120;37.904;2023-07-02T02:40:21;15.45;;;8.05;;
78116;SDS011;69042;59.120;37.904;2023-07-02T02:42:47;13.43;;;8.77;;
78116;SDS011;69042;59.120;37.904;2023-07-02T02:45:13;14.55;;;7.93;;
78116;SDS011;69042;59.120;37.904;2023-07-02T02:47:39;11.05;;;8.13;;
78116;SDS011;69042;59.120;37.904;2023-07-02T02:50:06;11.52;;;8.43;;
78116;SDS011;69042;59.120;37.904;2023-07-02T02:52:32;11.57;;;8.23;;
78116;SDS011;69042;59.120;37.904;2023-07-02T02:54:59;10.57;;;7.53;;
78116;SDS011;69042;59.120;37.904;2023-07-02T02:57:25;10.90;;;7.50;;
78116;SDS011;69042;59.120;37.904;2023-07-02T02:59:51;11.20;;;7.35;;
78116;SDS011;69042;59.120;37.904;2023-07-02T03:02:17;11.50;;;8.15;;
78116;SDS011;69042;59.120;37.904;2023-07-02T03:04:43;13.15;;;8.55;;
78116;SDS011;69042;59.120;37.904;2023-07-02T03:07:10;11.20;;;7.40;;
78116;SDS011;69042;59.120;37.904;2023-07-02T03:09:36;10.05;;;6.80;;
78116;SDS011;69042;59.120;37.904;2023-07-02T03:12:02;10.68;;;7.28;;
78116;SDS011;69042;59.120;37.904;2023-07-02T03:14:28;11.05;;;7.50;;
78116;SDS011;69042;59.120;37.904;2023-07-02T03:16:55;11.80;;;7.63;;
78116;SDS011;69042;59.120;37.904;2023-07-02T03:19:21;11.60;;;7.72;;
78116;SDS011;69042;59.120;37.904;2023-07-02T03:21:47;12.82;;;7.88;;
78116;SDS011;69042;59.120;37.904;2023-07-02T03:24:18;12.57;;;8.00;;
78116;SDS011;69042;59.120;37.904;2023-07-02T03:26:44;12.35;;;7.72;;
78116;SDS011;69042;59.120;37.904;2023-07-02T03:29:11;11.23;;;7.38;;
78116;SDS011;69042;59.120;37.904;2023-07-02T03:31:37;11.32;;;7.45;;
78116;SDS011;69042;59.120;37.904;2023-07-02T03:34:06;14.15;;;7.38;;
78116;SDS011;69042;59.120;37.904;2023-07-02T03:36:35;11.57;;;7.75;;
78116;SDS011;69042;59.120;37.904;2023-07-02T03:39:02;11.25;;;7.55;;
78116;SDS011;69042;59.120;37.904;2023-07-02T03:41:29;11.35;;;7.50;;
78116;SDS011;69042;59.120;37.904;2023-07-02T03:43:55;11.07;;;6.90;;
78116;SDS011;69042;59.120;37.904;2023-07-02T03:46:21;10.32;;;6.90;;
78116;SDS011;69042;59.120;37.904;2023-07-02T03:48:47;9.60;;;7.03;;
78116;SDS011;69042;59.120;37.904;2023-07-02T03:51:14;9.80;;;7.05;;
78116;SDS011;69042;59.120;37.904;2023-07-02T03:53:41;10.60;;;7.47;;
78116;SDS011;69042;59.120;37.904;2023-07-02T03:56:07;10.90;;;7.28;;
78116;SDS011;69042;59.120;37.904;2023-07-02T03:58:33;10.00;;;7.00;;
78116;SDS011;69042;59.120;37.904;2023-07-02T04:01:00;10.55;;;6.82;;
78116;SDS011;69042;59.120;37.904;2023-07-02T04:03:26;11.35;;;6.90;;
78116;SDS011;69042;59.120;37.904;2023-07-02T04:05:52;11.38;;;7.30;;
78116;SDS011;69042;59.120;37.904;2023-07-02T04:08:18;9.82;;;6.80;;
78116;SDS011;69042;59.120;37.904;2023-07-02T04:10:46;11.00;;;6.88;;
78116;SDS011;69042;59.120;37.904;2023-07-02T04:13:12;9.38;;;6.55;;
78116;SDS011;69042;59.120;37.904;2023-07-02T04:15:39;11.70;;;6.07;;
78116;SDS011;69042;59.120;37.904;2023-07-02T04:18:05;9.95;;;5.50;;
78116;SDS011;69042;59.120;37.904;2023-07-02T04:20:31;8.48;;;6.10;;
78116;SDS011;69042;59.120;37.904;2023-07-02T04:22:57;8.43;;;5.60;;
78116;SDS011;69042;59.120;37.904;2023-07-02T04:25:24;8.88;;;5.95;;
78116;SDS011;69042;59.120;37.904;2023-07-02T04:27:50;8.52;;;6.10;;
78116;SDS011;69042;59.120;37.904;2023-07-02T04:30:21;8.90;;;5.88;;
78116;SDS011;69042;59.120;37.904;2023-07-02T04:32:48;8.27;;;6.10;;
78116;SDS011;69042;59.120;37.904;2023-07-02T04:35:14;9.10;;;5.88;;
78116;SDS011;69042;59.120;37.904;2023-07-02T04:37:40;8.35;;;5.50;;
78116;SDS011;69042;59.120;37.904;2023-07-02T04:40:06;9.10;;;5.95;;
78116;SDS011;69042;59.120;37.904;2023-07-02T04:42:36;8.82;;;5.32;;
78116;SDS011;69042;59.120;37.904;2023-07-02T04:45:06;9.82;;;5.10;;
78116;SDS011;69042;59.120;37.904;2023-07-02T04:47:34;8.20;;;4.55;;
78116;SDS011;69042;59.120;37.904;2023-07-02T04:50:01;7.78;;;4.57;;
78116;SDS011;69042;59.120;37.904;2023-07-02T04:52:27;9.88;;;5.07;;
78116;SDS011;69042;59.120;37.904;2023-07-02T04:54:53;8.15;;;4.63;;
78116;SDS011;69042;59.120;37.904;2023-07-02T04:57:19;10.52;;;4.68;;
78116;SDS011;69042;59.120;37.904;2023-07-02T04:59:45;9.38;;;5.25;;
78116;SDS011;69042;59.120;37.904;2023-07-02T05:02:11;8.05;;;4.20;;
78116;SDS011;69042;59.120;37.904;2023-07-02T05:04:37;9.35;;;5.07;;
78116;SDS011;69042;59.120;37.904;2023-07-02T05:07:03;7.70;;;4.63;;
78116;SDS011;69042;59.120;37.904;2023-07-02T05:09:33;8.77;;;4.70;;
78116;SDS011;69042;59.120;37.904;2023-07-02T05:11:59;8.48;;;4.88;;
78116;SDS011;69042;59.120;37.904;2023-07-02T05:14:25;8.85;;;4.50;;
78116;SDS011;69042;59.120;37.904;2023-07-02T05:16:51;11.80;;;5.65;;
78116;SDS011;69042;59.120;37.904;2023-07-02T05:19:18;8.27;;;5.38;;
78116;SDS011;69042;59.120;37.904;2023-07-02T05:21:44;9.35;;;5.60;;
78116;SDS011;69042;59.120;37.904;2023-07-02T05:24:10;9.00;;;5.40;;
78116;SDS011;69042;59.120;37.904;2023-07-02T05:26:36;9.20;;;5.18;;
78116;SDS011;69042;59.120;37.904;2023-07-02T05:29:02;9.55;;;4.97;;
78116;SDS011;69042;59.120;37.904;2023-07-02T05:31:28;8.50;;;5.00;;
78116;SDS011;69042;59.120;37.904;2023-07-02T05:33:54;8.05;;;4.97;;
78116;SDS011;69042;59.120;37.904;2023-07-02T05:36:20;8.68;;;5.43;;
78116;SDS011;69042;59.120;37.904;2023-07-02T05:38:46;9.63;;;5.53;;
78116;SDS011;69042;59.120;37.904;2023-07-02T05:41:19;7.72;;;4.97;;
78116;SDS011;69042;59.120;37.904;2023-07-02T05:43:46;9.70;;;4.50;;
78116;SDS011;69042;59.120;37.904;2023-07-02T05:46:12;8.18;;;4.80;;
78116;SDS011;69042;59.120;37.904;2023-07-02T05:48:40;7.47;;;4.80;;
78116;SDS011;69042;59.120;37.904;2023-07-02T05:51:08;8.27;;;4.60;;
78116;SDS011;69042;59.120;37.904;2023-07-02T05:53:36;7.10;;;4.68;;
78116;SDS011;69042;59.120;37.904;2023-07-02T05:56:03;8.20;;;4.80;;
78116;SDS011;69042;59.120;37.904;2023-07-02T05:58:29;6.97;;;4.68;;
78116;SDS011;69042;59.120;37.904;2023-07-02T06:00:58;9.68;;;4.97;;
78116;SDS011;69042;59.120;37.904;2023-07-02T06:03:24;9.70;;;4.93;;
78116;SDS011;69042;59.120;37.904;2023-07-02T06:05:50;7.47;;;4.78;;
78116;SDS011;69042;59.120;37.904;2023-07-02T06:08:16;10.32;;;5.45;;
78116;SDS011;69042;59.120;37.904;2023-07-02T06:10:43;8.68;;;4.63;;
78116;SDS011;69042;59.120;37.904;2023-07-02T06:13:11;7.63;;;4.40;;
78116;SDS011;69042;59.120;37.904;2023-07-02T06:15:38;8.27;;;4.70;;
78116;SDS011;69042;59.120;37.904;2023-07-02T06:18:04;7.93;;;4.72;;
78116;SDS011;69042;59.120;37.904;2023-07-02T06:20:30;10.02;;;5.22;;
78116;SDS011;69042;59.120;37.904;2023-07-02T06:22:56;8.02;;;4.30;;
78116;SDS011;69042;59.120;37.904;2023-07-02T06:25:22;7.88;;;4.47;;
78116;SDS011;69042;59.120;37.904;2023-07-02T06:27:49;8.60;;;4.30;;
78116;SDS011;69042;59.120;37.904;2023-07-02T06:30:15;7.43;;;4.18;;
78116;SDS011;69042;59.120;37.904;2023-07-02T06:32:41;8.50;;;4.72;;
78116;SDS011;69042;59.120;37.904;2023-07-02T06:35:07;7.55;;;4.45;;
78116;SDS011;69042;59.120;37.904;2023-07-02T06:37:34;7.05;;;4.15;;
78116;SDS011;69042;59.120;37.904;2023-07-02T06:40:00;8.02;;;4.30;;
78116;SDS011;69042;59.120;37.904;2023-07-02T06:42:26;6.00;;;3.88;;
78116;SDS011;69042;59.120;37.904;2023-07-02T06:44:53;7.07;;;4.05;;
78116;SDS011;69042;59.120;37.904;2023-07-02T06:47:19;7.57;;;4.18;;
78116;SDS011;69042;59.120;37.904;2023-07-02T06:49:45;8.60;;;3.80;;
78116;SDS011;69042;59.120;37.904;2023-07-02T06:52:12;7.03;;;4.28;;
78116;SDS011;69042;59.120;37.904;2023-07-02T06:54:38;7.22;;;4.15;;
78116;SDS011;69042;59.120;37.904;2023-07-02T06:57:04;6.78;;;4.03;;
78116;SDS011;69042;59.120;37.904;2023-07-02T06:59:30;6.60;;;4.35;;
78116;SDS011;69042;59.120;37.904;2023-07-02T07:01:56;8.60;;;4.53;;
78116;SDS011;69042;59.120;37.904;2023-07-02T07:04:22;6.97;;;4.47;;
78116;SDS011;69042;59.120;37.904;2023-07-02T07:06:48;7.05;;;4.68;;
78116;SDS011;69042;59.120;37.904;2023-07-02T07:09:14;6.88;;;4.28;;
78116;SDS011;69042;59.120;37.904;2023-07-02T07:11:41;7.90;;;4.70;;
78116;SDS011;69042;59.120;37.904;2023-07-02T07:14:07;7.03;;;4.22;;
78116;SDS011;69042;59.120;37.904;2023-07-02T07:16:33;8.57;;;3.90;;
78116;SDS011;69042;59.120;37.904;2023-07-02T07:18:59;6.53;;;4.00;;
78116;SDS011;69042;59.120;37.904;2023-07-02T07:21:25;6.60;;;4.10;;
78116;SDS011;69042;59.120;37.904;2023-07-02T07:23:51;6.40;;;4.15;;
78116;SDS011;69042;59.120;37.904;2023-07-02T07:26:17;8.43;;;4.00;;
78116;SDS011;69042;59.120;37.904;2023-07-02T07:28:43;6.88;;;3.40;;
78116;SDS011;69042;59.120;37.904;2023-07-02T07:31:09;7.55;;;4.10;;
78116;SDS011;69042;59.120;37.904;2023-07-02T07:33:36;6.13;;;3.53;;
78116;SDS011;69042;59.120;37.904;2023-07-02T07:36:02;6.90;;;3.58;;
78116;SDS011;69042;59.120;37.904;2023-07-02T07:38:28;6.25;;;3.97;;
78116;SDS011;69042;59.120;37.904;2023-07-02T07:40:54;8.07;;;4.07;;
78116;SDS011;69042;59.120;37.904;2023-07-02T07:43:20;7.45;;;3.60;;
78116;SDS011;69042;59.120;37.904;2023-07-02T07:45:47;7.47;;;3.42;;
78116;SDS011;69042;59.120;37.904;2023-07-02T07:48:13;9.48;;;3.72;;
78116;SDS011;69042;59.120;37.904;2023-07-02T07:50:39;6.78;;;3.50;;
78116;SDS011;69042;59.120;37.904;2023-07-02T07:53:05;8.75;;;4.07;;
78116;SDS011;69042;59.120;37.904;2023-07-02T07:55:31;8.18;;;3.63;;
78116;SDS011;69042;59.120;37.904;2023-07-02T07:57:57;6.78;;;3.47;;
78116;SDS011;69042;59.120;37.904;2023-07-02T08:00:23;9.82;;;3.72;;
78116;SDS011;69042;59.120;37.904;2023-07-02T08:02:51;5.90;;;2.90;;
78116;SDS011;69042;59.120;37.904;2023-07-02T08:05:18;5.80;;;3.65;;
78116;SDS011;69042;59.120;37.904;2023-07-02T08:07:44;7.43;;;3.00;;
78116;SDS011;69042;59.120;37.904;2023-07-02T08:10:10;7.10;;;3.28;;
78116;SDS011;69042;59.120;37.904;2023-07-02T08:12:36;6.57;;;3.00;;
78116;SDS011;69042;59.120;37.904;2023-07-02T08:15:02;6.95;;;3.35;;
78116;SDS011;69042;59.120;37.904;2023-07-02T08:17:30;9.88;;;3.50;;
78116;SDS011;69042;59.120;37.904;2023-07-02T08:20:00;13.07;;;3.42;;
78116;SDS011;69042;59.120;37.904;2023-07-02T08:22:26;8.13;;;3.03;;
78116;SDS011;69042;59.120;37.904;2023-07-02T08:24:52;6.75;;;2.92;;
78116;SDS011;69042;59.120;37.904;2023-07-02T08:27:18;6.10;;;3.30;;
78116;SDS011;69042;59.120;37.904;2023-07-02T08:29:46;6.78;;;2.97;;
78116;SDS011;69042;59.120;37.904;2023-07-02T08:32:12;4.82;;;2.72;;
78116;SDS011;69042;59.120;37.904;2023-07-02T08:34:39;5.55;;;2.80;;
78116;SDS011;69042;59.120;37.904;2023-07-02T08:37:05;8.88;;;3.10;;
78116;SDS011;69042;59.120;37.904;2023-07-02T08:39:31;6.40;;;2.85;;
78116;SDS011;69042;59.120;37.904;2023-07-02T08:41:57;5.70;;;2.60;;
78116;SDS011;69042;59.120;37.904;2023-07-02T08:44:23;6.00;;;2.80;;
78116;SDS011;69042;59.120;37.904;2023-07-02T08:46:52;6.13;;;2.85;;
78116;SDS011;69042;59.120;37.904;2023-07-02T08:49:21;6.18;;;2.53;;
78116;SDS011;69042;59.120;37.904;2023-07-02T08:51:47;6.03;;;3.08;;
78116;SDS011;69042;59.120;37.904;2023-07-02T08:54:14;7.45;;;3.30;;
78116;SDS011;69042;59.120;37.904;2023-07-02T08:56:42;6.68;;;3.00;;
78116;SDS011;69042;59.120;37.904;2023-07-02T08:59:10;6.57;;;3.22;;
78116;SDS011;69042;59.120;37.904;2023-07-02T09:01:46;5.50;;;3.03;;
78116;SDS011;69042;59.120;37.904;2023-07-02T09:04:17;5.35;;;3.05;;
78116;SDS011;69042;59.120;37.904;2023-07-02T09:06:46;5.25;;;2.60;;
78116;SDS011;69042;59.120;37.904;2023-07-02T09:09:13;6.75;;;2.83;;
78116;SDS011;69042;59.120;37.904;2023-07-02T09:11:49;8.10;;;3.60;;
78116;SDS011;69042;59.120;37.904;2023-07-02T09:14:26;6.43;;;3.95;;
78116;SDS011;69042;59.120;37.904;2023-07-02T09:19:29;6.05;;;3.20;;
78116;SDS011;69042;59.120;37.904;2023-07-02T09:21:56;6.50;;;3.25;;
78116;SDS011;69042;59.120;37.904;2023-07-02T09:24:25;6.05;;;3.33;;
78116;SDS011;69042;59.120;37.904;2023-07-02T09:26:53;7.32;;;3.72;;
78116;SDS011;69042;59.120;37.904;2023-07-02T09:31:59;5.95;;;3.15;;
78116;SDS011;69042;59.120;37.904;2023-07-02T09:34:27;7.43;;;3.38;;
78116;SDS011;69042;59.120;37.904;2023-07-02T09:36:58;7.60;;;3.60;;
78116;SDS011;69042;59.120;37.904;2023-07-02T09:39:26;6.30;;;2.97;;
78116;SDS011;69042;59.120;37.904;2023-07-02T09:41:57;8.15;;;3.03;;
78116;SDS011;69042;59.120;37.904;2023-07-02T09:44:26;6.55;;;3.20;;
78116;SDS011;69042;59.120;37.904;2023-07-02T09:49:28;6.38;;;3.20;;
78116;SDS011;69042;59.120;37.904;2023-07-02T09:51:59;6.88;;;2.90;;
78116;SDS011;69042;59.120;37.904;2023-07-02T09:54:27;6.53;;;2.67;;
78116;SDS011;69042;59.120;37.904;2023-07-02T09:56:54;6.68;;;3.20;;
78116;SDS011;69042;59.120;37.904;2023-07-02T09:59:21;7.65;;;3.35;;
78116;SDS011;69042;59.120;37.904;2023-07-02T10:01:47;5.85;;;2.75;;
78116;SDS011;69042;59.120;37.904;2023-07-02T10:04:14;7.47;;;3.40;;
78116;SDS011;69042;59.120;37.904;2023-07-02T10:06:48;7.60;;;2.78;;
78116;SDS011;69042;59.120;37.904;2023-07-02T10:09:19;7.70;;;2.75;;
78116;SDS011;69042;59.120;37.904;2023-07-02T10:11:46;7.20;;;3.72;;
78116;SDS011;69042;59.120;37.904;2023-07-02T10:14:13;6.47;;;2.88;;
78116;SDS011;69042;59.120;37.904;2023-07-02T10:16:52;4.85;;;2.40;;
78116;SDS011;69042;59.120;37.904;2023-07-02T10:19:20;6.78;;;2.80;;
78116;SDS011;69042;59.120;37.904;2023-07-02T10:21:46;5.93;;;2.83;;
78116;SDS011;69042;59.120;37.904;2023-07-02T10:24:26;9.32;;;3.08;;
78116;SDS011;69042;59.120;37.904;2023-07-02T10:26:59;6.32;;;3.20;;
78116;SDS011;69042;59.120;37.904;2023-07-02T10:31:54;5.97;;;2.80;;
78116;SDS011;69042;59.120;37.904;2023-07-02T10:34:31;5.57;;;2.70;;
78116;SDS011;69042;59.120;37.904;2023-07-02T10:36:59;5.50;;;2.70;;
78116;SDS011;69042;59.120;37.904;2023-07-02T10:39:27;9.23;;;3.53;;
78116;SDS011;69042;59.120;37.904;2023-07-02T10:42:07;8.85;;;3.22;;
78116;SDS011;69042;59.120;37.904;2023-07-02T10:44:34;10.63;;;2.80;;
78116;SDS011;69042;59.120;37.904;2023-07-02T10:47:11;6.97;;;2.75;;
78116;SDS011;69042;59.120;37.904;2023-07-02T10:49:38;5.60;;;2.63;;
78116;SDS011;69042;59.120;37.904;2023-07-02T10:52:05;6.38;;;2.67;;
78116;SDS011;69042;59.120;37.904;2023-07-02T10:57:10;7.05;;;2.78;;
78116;SDS011;69042;59.120;37.904;2023-07-02T10:59:38;4.70;;;2.33;;
78116;SDS011;69042;59.120;37.904;2023-07-02T11:02:04;6.13;;;3.03;;
78116;SDS011;69042;59.120;37.904;2023-07-02T11:04:32;5.90;;;3.08;;
78116;SDS011;69042;59.120;37.904;2023-07-02T11:06:59;6.72;;;2.80;;
78116;SDS011;69042;59.120;37.904;2023-07-02T11:09:26;5.55;;;2.55;;
78116;SDS011;69042;59.120;37.904;2023-07-02T11:11:53;7.35;;;2.70;;
78116;SDS011;69042;59.120;37.904;2023-07-02T11:14:31;6.80;;;2.95;;
78116;SDS011;69042;59.120;37.904;2023-07-02T11:17:06;7.10;;;3.00;;
78116;SDS011;69042;59.120;37.904;2023-07-02T11:19:33;6.57;;;3.60;;
78116;SDS011;69042;59.120;37.904;2023-07-02T11:22:00;5.28;;;2.80;;
78116;SDS011;69042;59.120;37.904;2023-07-02T11:24:34;6.00;;;3.08;;
78116;SDS011;69042;59.120;37.904;2023-07-02T11:29:31;9.20;;;3.70;;
78116;SDS011;69042;59.120;37.904;2023-07-02T11:32:04;5.68;;;3.08;;
78116;SDS011;69042;59.120;37.904;2023-07-02T11:34:38;6.05;;;3.10;;
78116;SDS011;69042;59.120;37.904;2023-07-02T11:37:04;7.82;;;2.95;;
78116;SDS011;69042;59.120;37.904;2023-07-02T11:39:31;5.95;;;2.80;;
78116;SDS011;69042;59.120;37.904;2023-07-02T11:41:58;7.93;;;3.15;;
78116;SDS011;69042;59.120;37.904;2023-07-02T11:44:24;8.45;;;3.20;;
78116;SDS011;69042;59.120;37.904;2023-07-02T11:46:50;5.70;;;2.90;;
78116;SDS011;69042;59.120;37.904;2023-07-02T11:49:16;6.07;;;2.90;;
78116;SDS011;69042;59.120;37.904;2023-07-02T11:51:43;5.32;;;2.63;;
78116;SDS011;69042;59.120;37.904;2023-07-02T11:54:14;6.93;;;2.88;;
78116;SDS011;69042;59.120;37.904;2023-07-02T11:56:41;5.43;;;2.65;;
78116;SDS011;69042;59.120;37.904;2023-07-02T11:59:08;5.45;;;2.80;;
78116;SDS011;69042;59.120;37.904;2023-07-02T12:01:35;6.15;;;2.67;;
78116;SDS011;69042;59.120;37.904;2023-07-02T12:04:01;4.78;;;2.70;;
78116;SDS011;69042;59.120;37.904;2023-07-02T12:06:27;5.15;;;2.35;;
78116;SDS011;69042;59.120;37.904;2023-07-02T12:08:53;5.72;;;2.50;;
78116;SDS011;69042;59.120;37.904;2023-07-02T12:11:20;4.78;;;2.80;;
78116;SDS011;69042;59.120;37.904;2023-07-02T12:13:46;4.65;;;2.90;;
78116;SDS011;69042;59.120;37.904;2023-07-02T12:16:12;6.10;;;2.83;;
78116;SDS011;69042;59.120;37.904;2023-07-02T12:18:38;5.82;;;2.78;;
78116;SDS011;69042;59.120;37.904;2023-07-02T12:21:04;6.25;;;2.63;;
78116;SDS011;69042;59.120;37.904;2023-07-02T12:23:30;5.88;;;2.80;;
78116;SDS011;69042;59.120;37.904;2023-07-02T12:25:56;5.65;;;2.78;;
78116;SDS011;69042;59.120;37.904;2023-07-02T12:28:23;5.35;;;2.70;;
78116;SDS011;69042;59.120;37.904;2023-07-02T12:30:49;6.65;;;3.00;;
78116;SDS011;69042;59.120;37.904;2023-07-02T12:33:15;6.43;;;2.97;;
78116;SDS011;69042;59.120;37.904;2023-07-02T12:35:41;6.00;;;2.75;;
78116;SDS011;69042;59.120;37.904;2023-07-02T12:38:07;6.85;;;3.13;;
78116;SDS011;69042;59.120;37.904;2023-07-02T12:40:34;5.75;;;2.80;;
78116;SDS011;69042;59.120;37.904;2023-07-02T12:43:00;5.70;;;3.10;;
78116;SDS011;69042;59.120;37.904;2023-07-02T12:45:26;5.40;;;2.90;;
78116;SDS011;69042;59.120;37.904;2023-07-02T12:47:52;6.15;;;2.63;;
78116;SDS011;69042;59.120;37.904;2023-07-02T12:50:19;5.80;;;3.08;;
78116;SDS011;69042;59.120;37.904;2023-07-02T12:52:45;7.45;;;3.03;;
78116;SDS011;69042;59.120;37.904;2023-07-02T12:55:11;5.60;;;2.95;;
78116;SDS011;69042;59.120;37.904;2023-07-02T12:57:37;7.65;;;3.10;;
78116;SDS011;69042;59.120;37.904;2023-07-02T13:00:04;6.80;;;3.00;;
78116;SDS011;69042;59.120;37.904;2023-07-02T13:02:34;6.22;;;3.00;;
78116;SDS011;69042;59.120;37.904;2023-07-02T13:05:00;6.05;;;3.00;;
78116;SDS011;69042;59.120;37.904;2023-07-02T13:07:26;6.05;;;3.00;;
78116;SDS011;69042;59.120;37.904;2023-07-02T13:09:55;5.93;;;3.05;;
78116;SDS011;69042;59.120;37.904;2023-07-02T13:12:22;6.93;;;3.20;;
78116;SDS011;69042;59.120;37.904;2023-07-02T13:14:48;7.07;;;3.10;;
78116;SDS011;69042;59.120;37.904;2023-07-02T13:17:14;6.15;;;3.75;;
78116;SDS011;69042;59.120;37.904;2023-07-02T13:19:40;7.07;;;3.10;;
78116;SDS011;69042;59.120;37.904;2023-07-02T13:22:06;6.97;;;3.50;;
78116;SDS011;69042;59.120;37.904;2023-07-02T13:24:33;6.47;;;3.65;;
78116;SDS011;69042;59.120;37.904;2023-07-02T13:27:03;6.50;;;3.33;;
78116;SDS011;69042;59.120;37.904;2023-07-02T13:29:33;6.55;;;3.17;;
78116;SDS011;69042;59.120;37.904;2023-07-02T13:31:59;5.28;;;3.08;;
78116;SDS011;69042;59.120;37.904;2023-07-02T13:34:25;5.53;;;3.00;;
78116;SDS011;69042;59.120;37.904;2023-07-02T13:36:51;6.72;;;2.78;;
78116;SDS011;69042;59.120;37.904;2023-07-02T13:39:18;6.38;;;2.80;;
78116;SDS011;69042;59.120;37.904;2023-07-02T13:41:44;6.55;;;2.88;;
78116;SDS011;69042;59.120;37.904;2023-07-02T13:44:10;6.07;;;3.10;;
78116;SDS011;69042;59.120;37.904;2023-07-02T13:46:36;6.95;;;3.38;;
78116;SDS011;69042;59.120;37.904;2023-07-02T13:49:02;5.88;;;3.28;;
78116;SDS011;69042;59.120;37.904;2023-07-02T13:51:28;6.70;;;3.15;;
78116;SDS011;69042;59.120;37.904;2023-07-02T13:53:54;5.53;;;3.40;;
78116;SDS011;69042;59.120;37.904;2023-07-02T13:56:20;5.72;;;3.22;;
78116;SDS011;69042;59.120;37.904;2023-07-02T13:58:58;6.85;;;3.13;;
78116;SDS011;69042;59.120;37.904;2023-07-02T14:01:25;7.15;;;3.50;;
78116;SDS011;69042;59.120;37.904;2023-07-02T14:03:52;6.32;;;3.35;;
78116;SDS011;69042;59.120;37.904;2023-07-02T14:06:20;5.25;;;3.00;;
78116;SDS011;69042;59.120;37.904;2023-07-02T14:08:47;6.03;;;3.45;;
78116;SDS011;69042;59.120;37.904;2023-07-02T14:11:13;6.10;;;3.63;;
78116;SDS011;69042;59.120;37.904;2023-07-02T14:13:39;7.07;;;3.60;;
78116;SDS011;69042;59.120;37.904;2023-07-02T14:16:05;8.05;;;4.55;;
78116;SDS011;69042;59.120;37.904;2023-07-02T14:18:31;7.00;;;4.10;;
78116;SDS011;69042;59.120;37.904;2023-07-02T14:20:57;6.13;;;3.92;;
78116;SDS011;69042;59.120;37.904;2023-07-02T14:23:23;5.95;;;3.72;;
78116;SDS011;69042;59.120;37.904;2023-07-02T14:25:49;10.43;;;3.88;;
78116;SDS011;69042;59.120;37.904;2023-07-02T14:28:16;7.88;;;4.22;;
78116;SDS011;69042;59.120;37.904;2023-07-02T14:30:42;7.07;;;4.00;;
78116;SDS011;69042;59.120;37.904;2023-07-02T14:33:08;7.80;;;4.22;;
78116;SDS011;69042;59.120;37.904;2023-07-02T14:35:34;8.27;;;3.80;;
78116;SDS011;69042;59.120;37.904;2023-07-02T14:38:02;8.00;;;4.13;;
78116;SDS011;69042;59.120;37.904;2023-07-02T14:40:28;6.80;;;3.47;;
78116;SDS011;69042;59.120;37.904;2023-07-02T14:42:54;6.55;;;3.85;;
78116;SDS011;69042;59.120;37.904;2023-07-02T14:45:20;6.38;;;3.97;;
78116;SDS011;69042;59.120;37.904;2023-07-02T14:47:46;7.50;;;4.07;;